Time;durP1;ratioP1;P1;durP2;ratioP2;P2;SDS_P1;SDS_P2;PMS_P1;PMS_P2;Temp;Humidity;BMP_temperature;BMP_pressure;BME280_temperature;BME280_humidity;BME280_pressure;Samples;Min_cycle;Max_cycle;Signal;HPM_P1;HPM_P2
2022/10/29 00:01:00;;;;;;;;;;;15.90;99.90;;;;;;5039391;28;20033;-67
2022/10/29 00:03:26;;;;;;;18.92;5.55;;;15.80;99.90;;;;;;5040237;28;19916;-67
2022/10/29 00:05:59;;;;;;;23.17;5.25;;;15.80;99.90;;;;;;5042222;28;20561;-68
2022/10/29 00:08:29;;;;;;;28.65;7.65;;;15.80;99.90;;;;;;5040123;28;20508;-67
2022/10/29 00:11:03;;;;;;;19.17;5.55;;;15.80;99.90;;;;;;5040961;28;20041;-67
2022/10/29 00:13:28;;;;;;;21.33;5.88;;;15.80;99.90;;;;;;5040254;28;20041;-67
2022/10/29 00:15:54;;;;;;;;;;;15.80;99.90;;;;;;5040971;28;20091;-67
2022/10/29 00:18:19;;;;;;;25.17;5.32;;;15.80;99.90;;;;;;5030843;28;19921;-67
2022/10/29 00:20:47;;;;;;;20.30;6.38;;;15.80;99.90;;;;;;5027734;28;20361;-66
2022/10/29 00:23:12;;;;;;;25.05;5.88;;;15.80;99.90;;;;;;5027333;28;20045;-66
2022/10/29 00:25:38;;;;;;;;;;;15.80;99.90;;;;;;5027824;28;20528;-66
2022/10/29 00:28:04;;;;;;;20.40;5.65;;;15.80;99.90;;;;;;5026946;28;19925;-66
2022/10/29 00:30:29;;;;;;;;;;;15.80;99.90;;;;;;5022909;28;20034;-66
2022/10/29 00:32:55;;;;;;;17.17;5.28;;;15.70;99.90;;;;;;5026626;28;19917;-68
2022/10/29 00:35:21;;;;;;;;;;;15.70;99.90;;;;;;5027969;28;20546;-67
2022/10/29 00:37:46;;;;;;;25.00;5.93;;;15.70;99.90;;;;;;5027091;28;19963;-67
2022/10/29 00:40:12;;;;;;;;;;;15.70;99.90;;;;;;5028120;28;20063;-66
2022/10/29 00:42:37;;;;;;;31.80;6.00;;;15.70;99.90;;;;;;5022123;28;19921;-66
2022/10/29 00:45:03;;;;;;;;;;;15.70;99.90;;;;;;5026329;28;20045;-66
2022/10/29 00:47:34;;;;;;;25.33;5.82;;;15.70;99.90;;;;;;5025027;28;19921;-67
2022/10/29 00:50:20;;;;;;;27.63;6.00;;;15.70;99.90;;;;;;5025641;28;20045;-67
2022/10/29 00:52:52;;;;;;;27.92;5.90;;;15.70;99.90;;;;;;5025852;28;20041;-67
2022/10/29 00:55:19;;;;;;;21.48;6.13;;;15.70;99.90;;;;;;5027137;28;20048;-66
2022/10/29 00:57:51;;;;;;;25.13;6.00;;;15.70;99.90;;;;;;5032194;28;20048;-67
2022/10/29 01:00:18;;;;;;;22.20;5.38;;;15.70;99.90;;;;;;5022736;28;20059;-67
2022/10/29 01:02:44;;;;;;;23.80;5.55;;;15.60;99.90;;;;;;5025296;28;20468;-66
2022/10/29 01:05:13;;;;;;;21.27;5.97;;;15.70;99.90;;;;;;5023235;28;20045;-66
2022/10/29 01:07:39;;;;;;;20.85;5.38;;;15.60;99.90;;;;;;5024951;28;20132;-67
2022/10/29 01:10:05;;;;;;;20.48;4.88;;;15.60;99.90;;;;;;5022451;28;20448;-67
2022/10/29 01:13:06;;;;;;;25.17;5.60;;;15.70;99.90;;;;;;5026513;28;20049;-67
2022/10/29 01:15:39;;;;;;;22.40;5.90;;;15.70;99.90;;;;;;5023873;28;20045;-66
2022/10/29 01:18:15;;;;;;;19.17;5.45;;;15.70;99.90;;;;;;5026209;28;20045;-66
2022/10/29 01:21:19;;;;;;;24.05;6.00;;;15.70;99.90;;;;;;5023841;28;20037;-66
2022/10/29 01:24:06;;;;;;;21.20;5.72;;;15.70;99.90;;;;;;5015604;28;20046;-67
2022/10/29 01:26:59;;;;;;;27.60;5.63;;;15.60;99.90;;;;;;5027047;28;20034;-67
2022/10/29 01:29:50;;;;;;;26.30;5.90;;;15.70;99.90;;;;;;5021976;28;20512;-65
2022/10/29 01:32:39;;;;;;;27.70;5.45;;;15.60;99.90;;;;;;5030470;28;20033;-67
2022/10/29 01:35:31;;;;;;;34.88;6.50;;;15.70;99.90;;;;;;5036036;28;20166;-67
2022/10/29 01:38:09;;;;;;;20.30;5.30;;;15.60;99.90;;;;;;5036706;28;20044;-67
2022/10/29 01:41:06;;;;;;;17.75;4.93;;;15.70;99.90;;;;;;5036658;28;20037;-66
2022/10/29 01:44:04;;;;;;;17.63;4.50;;;15.70;99.90;;;;;;5041417;28;20040;-67
2022/10/29 01:46:44;;;;;;;18.88;5.28;;;15.70;99.90;;;;;;5034313;28;20051;-66
2022/10/29 01:49:16;;;;;;;22.08;5.72;;;15.80;99.90;;;;;;5040737;28;20036;-67
2022/10/29 01:51:42;;;;;;;29.85;6.18;;;15.70;99.90;;;;;;5032041;28;20040;-67
2022/10/29 01:54:10;;;;;;;26.42;4.90;;;15.80;99.90;;;;;;5039782;28;20041;-67
2022/10/29 01:56:36;;;;;;;18.08;5.22;;;15.80;99.90;;;;;;5032118;28;20438;-67
2022/10/29 01:59:05;;;;;;;24.92;6.68;;;15.80;99.90;;;;;;5030502;28;20033;-66
2022/10/29 02:02:07;;;;;;;25.55;5.82;;;15.80;99.90;;;;;;5024536;28;20048;-67
2022/10/29 02:05:12;;;;;;;20.98;5.00;;;15.80;99.90;;;;;;5036738;28;20045;-66
2022/10/29 02:07:53;;;;;;;21.23;6.00;;;15.80;99.90;;;;;;5035272;28;20090;-66
2022/10/29 02:10:40;;;;;;;14.30;4.85;;;15.80;99.90;;;;;;5032805;28;20045;-67
2022/10/29 02:13:10;;;;;;;25.48;6.38;;;15.80;99.90;;;;;;5037744;28;20036;-67
2022/10/29 02:15:50;;;;;;;24.73;5.63;;;15.80;99.90;;;;;;5039377;28;20480;-67
2022/10/29 02:18:16;;;;;;;20.25;5.82;;;15.80;99.90;;;;;;5033509;28;20072;-67
2022/10/29 02:20:44;;;;;;;25.80;6.35;;;15.80;99.90;;;;;;5039107;28;20041;-67
2022/10/29 02:23:09;;;;;;;23.15;5.03;;;15.80;99.90;;;;;;5031672;28;20064;-67
2022/10/29 02:25:35;;;;;;;;;;;15.70;99.90;;;;;;5035464;28;20072;-66
2022/10/29 02:28:01;;;;;;;18.13;5.15;;;15.70;99.90;;;;;;5039099;28;19944;-66
2022/10/29 02:30:27;;;;;;;27.88;6.10;;;15.70;99.90;;;;;;5040345;28;20759;-66
2022/10/29 02:32:52;;;;;;;;;;;15.70;99.90;;;;;;5036333;28;20140;-67
2022/10/29 02:35:18;;;;;;;20.15;5.03;;;15.70;99.90;;;;;;5045419;28;19923;-66
2022/10/29 02:37:44;;;;;;;;;;;15.60;99.90;;;;;;5038255;28;20385;-67
2022/10/29 02:40:10;;;;;;;18.90;5.68;;;15.60;99.90;;;;;;5040589;28;19916;-68
2022/10/29 02:42:35;;;;;;;29.02;5.90;;;15.60;99.90;;;;;;5041097;28;20068;-67
2022/10/29 02:45:01;;;;;;;;;;;15.50;99.90;;;;;;5041376;28;20060;-66
2022/10/29 02:47:27;;;;;;;34.58;5.38;;;15.60;99.90;;;;;;5026101;28;20363;-67
2022/10/29 02:49:52;;;;;;;;;;;15.50;99.90;;;;;;5040492;28;20534;-66
2022/10/29 02:52:18;;;;;;;18.88;5.30;;;15.50;99.90;;;;;;5040913;28;19917;-67
2022/10/29 02:54:44;;;;;;;;;;;15.50;99.90;;;;;;5050947;28;20561;-66
2022/10/29 02:57:09;;;;;;;18.00;4.78;;;15.40;99.90;;;;;;5037639;28;19917;-66
2022/10/29 02:59:35;;;;;;;22.23;4.95;;;15.50;99.90;;;;;;5049390;28;20060;-66
2022/10/29 03:02:01;;;;;;;;;;;15.40;99.90;;;;;;5051347;28;20037;-66
2022/10/29 03:04:27;;;;;;;20.92;6.85;;;15.40;99.90;;;;;;5047492;28;19975;-67
2022/10/29 03:06:52;;;;;;;;;;;15.50;99.90;;;;;;5054168;28;20052;-67
2022/10/29 03:09:18;;;;;;;17.02;5.55;;;15.40;99.90;;;;;;5042113;28;19960;-67
2022/10/29 03:11:44;;;;;;;;;;;15.40;99.90;;;;;;5033935;28;20068;-67
2022/10/29 03:14:09;;;;;;;27.58;6.30;;;15.30;99.90;;;;;;5045446;28;20043;-66
2022/10/29 03:16:35;;;;;;;;;;;15.30;99.90;;;;;;5039202;28;20045;-67
2022/10/29 03:19:01;;;;;;;21.52;5.40;;;15.30;99.90;;;;;;5033508;28;19920;-67
2022/10/29 03:21:26;;;;;;;;;;;15.20;99.90;;;;;;5028120;28;20057;-67
2022/10/29 03:23:52;;;;;;;28.95;5.82;;;15.20;99.90;;;;;;5033294;28;20376;-67
2022/10/29 03:26:18;;;;;;;;;;;15.20;99.90;;;;;;5033524;28;20041;-67
2022/10/29 03:28:43;;;;;;;;;;;15.20;99.90;;;;;;5037317;28;20007;-67
2022/10/29 03:31:09;;;;;;;;;;;15.20;99.90;;;;;;5027984;28;19917;-67
2022/10/29 03:33:34;;;;;;;;;;;15.20;99.90;;;;;;5036110;28;19921;-67
2022/10/29 03:36:01;;;;;;;;;;;15.20;99.90;;;;;;5047460;28;19913;-66
2022/10/29 03:38:27;;;;;;;;;;;15.20;99.90;;;;;;5048857;28;19923;-67
2022/10/29 03:40:53;;;;;;;;;;;15.20;99.90;;;;;;5030978;28;19996;-66
2022/10/29 03:43:22;;;;;;;;;;;15.20;99.90;;;;;;5033604;28;19972;-67
2022/10/29 03:45:54;;;;;;;;;;;15.20;99.90;;;;;;5032358;28;19925;-67
2022/10/29 03:48:20;;;;;;;;;;;15.20;99.90;;;;;;5050093;28;19916;-66
2022/10/29 03:50:56;;;;;;;;;;;15.10;99.90;;;;;;5041582;28;20568;-68
2022/10/29 03:53:22;;;;;;;;;;;15.10;99.90;;;;;;5039418;28;20256;-67
2022/10/29 03:55:49;;;;;;;;;;;14.90;99.90;;;;;;5040606;28;19931;-67
2022/10/29 03:58:14;;;;;;;;;;;14.90;99.90;;;;;;5040475;28;19920;-67
2022/10/29 04:00:40;;;;;;;;;;;15.00;99.90;;;;;;5034386;28;20526;-67
2022/10/29 04:03:05;;;;;;;;;;;14.90;99.90;;;;;;5042377;28;20036;-68
2022/10/29 04:05:31;;;;;;;;;;;14.90;99.90;;;;;;5037046;28;20400;-67
2022/10/29 04:07:56;;;;;;;;;;;14.90;99.90;;;;;;5036132;28;20650;-68
2022/10/29 04:10:22;;;;;;;;;;;14.90;99.90;;;;;;5047222;28;19920;-67
2022/10/29 04:12:47;;;;;;;;;;;14.90;99.90;;;;;;5040971;28;19921;-67
2022/10/29 04:15:13;;;;;;;;;;;14.80;99.90;;;;;;5057088;28;19926;-67
2022/10/29 04:17:38;;;;;;;;;;;14.80;99.90;;;;;;5063878;28;20668;-68
2022/10/29 04:20:04;;;;;;;;;;;14.80;99.90;;;;;;5035864;28;20011;-67
2022/10/29 04:22:29;;;;;;;;;;;14.80;99.90;;;;;;5031079;28;19921;-67
2022/10/29 04:24:55;;;;;;;;;;;14.70;99.90;;;;;;5037381;28;19943;-67
2022/10/29 04:27:20;;;;;;;;;;;14.70;99.90;;;;;;5032537;28;19935;-67
2022/10/29 04:29:46;;;;;;;;;;;14.70;99.90;;;;;;5038352;28;20292;-68
2022/10/29 04:32:11;;;;;;;;;;;14.70;99.90;;;;;;5029673;28;20064;-68
2022/10/29 04:34:37;;;;;;;;;;;14.60;99.90;;;;;;5041034;28;20608;-68
2022/10/29 04:37:03;;;;;;;;;;;14.60;99.90;;;;;;5028838;28;20014;-67
2022/10/29 04:39:28;;;;;;;;;;;14.60;99.90;;;;;;5042927;28;20483;-67
2022/10/29 04:41:54;;;;;;;;;;;14.50;99.90;;;;;;5031175;28;19917;-68
2022/10/29 04:44:20;;;;;;;;;;;14.50;99.90;;;;;;5043379;28;19916;-67
2022/10/29 04:46:46;;;;;;;;;;;14.40;99.90;;;;;;5036469;28;19967;-67
2022/10/29 04:49:11;;;;;;;;;;;14.40;99.90;;;;;;5046340;28;19959;-68
2022/10/29 04:51:37;;;;;;;;;;;14.30;99.90;;;;;;5036208;28;19913;-68
2022/10/29 04:54:02;;;;;;;;;;;14.30;99.90;;;;;;5038269;28;19916;-67
2022/10/29 04:56:29;;;;;;;;;;;14.30;99.90;;;;;;5036934;28;20419;-67
2022/10/29 04:58:54;;;;;;;;;;;14.20;99.90;;;;;;5043373;28;19920;-67
2022/10/29 05:01:20;;;;;;;;;;;14.20;99.90;;;;;;5038449;28;20342;-67
2022/10/29 05:03:45;;;;;;;;;;;14.10;99.90;;;;;;5039238;28;19938;-67
2022/10/29 05:06:11;;;;;;;;;;;14.10;99.90;;;;;;5031929;28;20850;-66
2022/10/29 05:08:37;;;;;;;;;;;14.20;99.90;;;;;;5036988;28;20405;-66
2022/10/29 05:11:03;;;;;;;;;;;14.20;99.90;;;;;;5030120;28;19917;-67
2022/10/29 05:13:29;;;;;;;;;;;14.20;99.90;;;;;;5039702;28;20373;-68
2022/10/29 05:15:55;;;;;;;;;;;14.20;99.90;;;;;;5034121;28;20331;-68
2022/10/29 05:18:20;;;;;;;;;;;14.20;99.90;;;;;;5034295;28;20387;-67
2022/10/29 05:20:46;;;;;;;;;;;14.20;99.90;;;;;;5034579;28;19924;-69
2022/10/29 05:23:11;;;;;;;;;;;14.20;99.90;;;;;;5032030;28;19999;-69
2022/10/29 05:25:38;;;;;;;;;;;14.10;99.90;;;;;;5035984;28;19923;-69
2022/10/29 05:28:03;;;;;;;;;;;14.10;99.90;;;;;;5052376;28;19920;-68
2022/10/29 05:30:29;;;;;;;;;;;14.10;99.90;;;;;;5032407;28;20020;-67
2022/10/29 05:32:55;;;;;;;;;;;14.10;99.90;;;;;;5037006;28;19947;-67
2022/10/29 05:35:21;;;;;;;;;;;14.20;99.90;;;;;;5042245;28;19931;-67
2022/10/29 05:37:53;;;;;;;;;;;14.10;99.90;;;;;;5042689;28;20010;-66
2022/10/29 05:40:20;;;;;;;;;;;14.10;99.90;;;;;;5031095;28;19920;-67
2022/10/29 05:42:45;;;;;;;;;;;14.10;99.90;;;;;;5041014;28;19974;-67
2022/10/29 05:45:11;;;;;;;;;;;14.10;99.90;;;;;;5032453;28;19925;-67
2022/10/29 05:47:37;;;;;;;;;;;14.10;99.90;;;;;;5040739;28;19921;-67
2022/10/29 05:50:02;;;;;;;;;;;14.10;99.90;;;;;;5033419;28;19920;-67
2022/10/29 05:52:28;;;;;;;;;;;14.10;99.90;;;;;;5038002;28;20600;-68
2022/10/29 05:54:54;;;;;;;;;;;14.10;99.90;;;;;;5035742;28;19970;-67
2022/10/29 05:57:19;;;;;;;;;;;14.00;99.90;;;;;;5032130;28;19970;-67
2022/10/29 05:59:45;;;;;;;;;;;14.00;99.90;;;;;;5034837;28;19921;-68
2022/10/29 06:02:11;;;;;;;;;;;14.00;99.90;;;;;;5037409;28;19917;-68
2022/10/29 06:04:36;;;;;;;;;;;14.00;99.90;;;;;;5040415;28;19924;-67
2022/10/29 06:07:02;;;;;;;;;;;14.00;99.90;;;;;;5043209;28;20387;-67
2022/10/29 06:09:27;;;;;;;;;;;14.00;99.90;;;;;;5040700;28;19917;-67
2022/10/29 06:11:53;;;;;;;;;;;13.90;99.90;;;;;;5056083;28;20003;-67
2022/10/29 06:14:19;;;;;;;;;;;13.90;99.90;;;;;;5043557;28;20327;-67
2022/10/29 06:16:45;;;;;;;;;;;13.90;99.90;;;;;;5041155;28;19928;-68
2022/10/29 06:19:10;;;;;;;;;;;13.90;99.90;;;;;;5045963;28;19924;-67
2022/10/29 06:21:36;;;;;;;;;;;13.80;99.90;;;;;;5044918;28;20382;-67
2022/10/29 06:24:02;;;;;;;;;;;13.80;99.90;;;;;;5051702;28;19929;-67
2022/10/29 06:26:27;;;;;;;;;;;13.90;99.90;;;;;;5057236;28;20038;-66
2022/10/29 06:28:53;;;;;;;;;;;13.90;99.90;;;;;;5046718;28;20316;-66
2022/10/29 06:31:18;;;;;;;;;;;14.00;99.90;;;;;;5052060;28;20047;-68
2022/10/29 06:33:44;;;;;;;;;;;14.10;99.90;;;;;;5053861;28;19959;-67
2022/10/29 06:36:10;;;;;;;;;;;14.10;99.90;;;;;;5057943;28;19971;-67
2022/10/29 06:38:35;;;;;;;;;;;14.10;99.90;;;;;;5054465;28;20327;-68
2022/10/29 06:41:01;;;;;;;;;;;14.00;99.90;;;;;;5058261;28;20011;-69
2022/10/29 06:43:26;;;;;;;;;;;14.10;99.90;;;;;;5046225;28;19923;-66
2022/10/29 06:45:52;;;;;;;;;;;14.10;99.90;;;;;;5046353;28;19924;-67
2022/10/29 06:48:17;;;;;;;;;;;14.10;99.90;;;;;;5045005;28;19974;-67
2022/10/29 06:50:43;;;;;;;;;;;14.10;99.90;;;;;;5056102;28;19916;-66
2022/10/29 06:53:10;;;;;;;;;;;14.20;99.90;;;;;;5045342;28;19963;-67
2022/10/29 06:55:36;;;;;;;;;;;14.30;99.90;;;;;;5042674;28;20074;-67
2022/10/29 06:58:03;;;;;;;;;;;14.30;99.90;;;;;;5040024;28;20443;-67
2022/10/29 07:00:29;;;;;;;;;;;14.40;99.90;;;;;;5045153;28;19921;-68
2022/10/29 07:02:55;;;;;;;;;;;14.40;99.90;;;;;;5048224;28;20288;-68
2022/10/29 07:05:21;;;;;;;;;;;14.50;99.90;;;;;;5046134;28;20758;-69
2022/10/29 07:07:47;;;;;;;;;;;14.50;99.90;;;;;;5057485;28;19990;-67
2022/10/29 07:10:13;;;;;;;;;;;14.60;99.90;;;;;;5041749;28;20050;-64
2022/10/29 07:12:42;;;;;;;;;;;14.60;99.90;;;;;;5052533;28;20019;-69
2022/10/29 07:15:08;;;;;;;;;;;14.60;99.90;;;;;;5045564;28;19927;-71
2022/10/29 07:17:34;;;;;;;;;;;14.60;99.90;;;;;;5047651;28;19924;-67
2022/10/29 07:20:00;;;;;;;;;;;14.70;99.90;;;;;;5047437;28;20578;-68
2022/10/29 07:22:25;;;;;;;;;;;14.80;99.90;;;;;;5037540;28;19928;-67
2022/10/29 07:24:51;;;;;;;;;;;14.80;99.90;;;;;;5037443;28;19921;-70
2022/10/29 07:27:16;;;;;;;;;;;14.90;99.90;;;;;;5038000;28;19921;-67
2022/10/29 07:29:42;;;;;;;;;;;14.90;99.90;;;;;;5045076;28;20306;-70
2022/10/29 07:32:08;;;;;;;;;;;15.00;99.90;;;;;;5035120;28;19917;-68
2022/10/29 07:34:33;;;;;;;;;;;15.00;99.90;;;;;;5043248;28;19917;-70
2022/10/29 07:36:58;;;;;;;;;;;15.00;99.90;;;;;;5032662;28;19932;-68
2022/10/29 07:39:24;;;;;;;;;;;15.00;99.90;;;;;;5047610;28;20328;-68
2022/10/29 07:41:50;;;;;;;;;;;15.00;99.90;;;;;;5041590;28;19989;-69
2022/10/29 07:44:15;;;;;;;;;;;15.10;99.90;;;;;;5048980;28;19916;-71
2022/10/29 07:46:41;;;;;;;;;;;15.20;99.90;;;;;;5044948;28;19924;-68
2022/10/29 07:49:06;;;;;;;;;;;15.20;99.90;;;;;;5043914;28;20359;-69
2022/10/29 07:51:32;;;;;;;;;;;15.30;99.90;;;;;;5060413;28;20270;-68
2022/10/29 07:53:57;;;;;;;;;;;15.40;99.90;;;;;;5044974;28;20034;-68
2022/10/29 07:56:23;;;;;;;;;;;15.50;99.90;;;;;;5040703;28;19921;-68
2022/10/29 07:58:49;;;;;;;;;;;15.40;99.90;;;;;;5047664;28;20506;-68
2022/10/29 08:01:14;;;;;;;;;;;15.50;99.90;;;;;;5040971;28;19932;-71
2022/10/29 08:03:40;;;;;;;;;;;15.50;99.90;;;;;;5053320;28;19921;-68
2022/10/29 08:06:06;;;;;;;;;;;15.60;99.90;;;;;;5041728;28;19929;-68
2022/10/29 08:08:33;;;;;;;;;;;15.70;99.90;;;;;;5060355;28;20279;-68
2022/10/29 08:11:00;;;;;;;;;;;15.70;99.90;;;;;;5045633;28;20003;-68
2022/10/29 08:13:25;;;;;;;;;;;15.80;99.90;;;;;;5043779;28;19917;-68
2022/10/29 08:15:51;;;;;;;;;;;15.90;99.90;;;;;;5044933;28;19917;-69
2022/10/29 08:18:17;;;;;;;;;;;16.00;99.90;;;;;;5042011;28;19920;-69
2022/10/29 08:20:42;;;;;;;;;;;16.10;99.90;;;;;;5045356;28;19917;-68
2022/10/29 08:23:08;;;;;;;;;;;16.20;99.90;;;;;;5033406;28;19971;-67
2022/10/29 08:25:40;;;;;;;;;;;16.30;99.90;;;;;;5037565;28;20616;-68
2022/10/29 08:28:06;;;;;;;;;;;16.40;99.90;;;;;;5041903;28;19974;-69
2022/10/29 08:30:33;;;;;;;;;;;16.60;99.90;;;;;;5038464;28;19924;-67
2022/10/29 08:32:59;;;;;;;;;;;16.70;99.90;;;;;;5038000;28;20338;-68
2022/10/29 08:35:25;;;;;;;;;;;16.80;99.90;;;;;;5046851;28;19964;-70
2022/10/29 08:37:50;;;;;;;;;;;17.00;99.90;;;;;;5045588;28;20388;-69
2022/10/29 08:40:16;;;;;;;;;;;17.10;99.90;;;;;;5037812;28;19924;-68
2022/10/29 08:42:46;;;;;;;;;;;17.20;99.90;;;;;;5055709;28;19932;-69
2022/10/29 08:45:12;;;;;;;;;;;17.40;99.90;;;;;;5046399;28;20356;-66
2022/10/29 08:48:16;;;;;;;;;;;17.60;99.90;;;;;;5050124;28;19935;-67
2022/10/29 08:50:43;;;;;;;;;;;17.80;99.90;;;;;;5054045;28;19916;-67
2022/10/29 08:53:35;;;;;;;;;;;17.90;99.90;;;;;;5049686;28;19962;-67
2022/10/29 08:56:02;;;;;;;;;;;18.00;99.90;;;;;;5043265;28;20011;-67
2022/10/29 08:58:42;;;;;;;;;;;18.10;99.90;;;;;;5038341;28;19967;-67
2022/10/29 09:01:09;;;;;;;;;;;18.20;99.90;;;;;;5048244;28;19999;-66
2022/10/29 09:03:34;;;;;;;;;;;18.30;99.90;;;;;;5042379;28;19931;-65
2022/10/29 09:06:00;;;;;;;;;;;18.50;99.90;;;;;;5061209;28;19920;-65
2022/10/29 09:08:26;;;;;;;;;;;18.70;99.90;;;;;;5041383;28;19936;-65
2022/10/29 09:10:53;;;;;;;;;;;18.80;99.90;;;;;;5061131;28;20336;-65
2022/10/29 09:13:20;;;;;;;;;;;18.90;99.90;;;;;;5052573;28;20442;-66
2022/10/29 09:15:51;;;;;;;;;;;19.00;99.90;;;;;;5036267;28;20717;-66
2022/10/29 09:18:29;;;;;;;;;;;18.90;99.90;;;;;;5059200;28;20522;-66
2022/10/29 09:21:00;;;;;;;;;;;18.90;99.90;;;;;;5043528;28;19916;-67
2022/10/29 09:23:48;;;;;;;;;;;19.00;99.90;;;;;;5050855;28;20012;-66
2022/10/29 09:26:33;;;;;;;;;;;19.00;99.90;;;;;;5044021;28;19921;-65
2022/10/29 09:29:05;;;;;;;;;;;19.00;99.90;;;;;;5038071;28;19920;-66
2022/10/29 09:31:34;;;;;;;;;;;19.20;99.90;;;;;;5026969;28;19916;-66
2022/10/29 09:34:04;;;;;;;;;;;19.40;99.90;;;;;;5035113;28;19920;-66
2022/10/29 09:36:30;;;;;;;;;;;19.50;99.90;;;;;;5031512;28;19921;-67
2022/10/29 09:38:57;;;;;;;;;;;19.70;99.60;;;;;;5033566;28;19926;-66
2022/10/29 09:41:29;;;;;;;;;;;19.80;99.50;;;;;;5032781;28;19928;-66
2022/10/29 09:44:00;;;;;;;;;;;19.90;99.50;;;;;;5055541;28;19924;-65
2022/10/29 09:46:45;;;;;;;;;;;20.00;98.80;;;;;;5074731;28;19927;-66
2022/10/29 09:49:21;;;;;;;;;;;20.00;98.80;;;;;;5043148;28;20423;-66
2022/10/29 09:51:52;;;;;;;;;;;20.10;98.70;;;;;;5030384;28;19924;-66
2022/10/29 09:54:18;;;;;;;;;;;20.10;98.10;;;;;;5042777;28;19924;-66
2022/10/29 09:56:45;;;;;;;;;;;20.00;98.20;;;;;;5042973;28;19925;-66
2022/10/29 09:59:17;;;;;;;;;;;20.00;98.70;;;;;;5035124;28;20020;-65
2022/10/29 10:01:42;;;;;;;;;;;20.10;98.50;;;;;;5029249;28;19917;-65
2022/10/29 10:04:14;;;;;;;;;;;20.10;98.00;;;;;;5038284;28;19921;-65
2022/10/29 10:06:58;;;;;;;;;;;20.20;98.10;;;;;;5031198;28;19972;-66
2022/10/29 10:09:24;;;;;;;;;;;20.30;97.70;;;;;;5035266;28;20017;-66
2022/10/29 10:11:51;;;;;;;;;;;20.50;97.60;;;;;;5027726;28;19975;-66
2022/10/29 10:14:19;;;;;;;;;;;20.70;96.70;;;;;;5034858;28;19951;-66
2022/10/29 10:16:44;;;;;;;;;;;20.80;96.70;;;;;;5043560;28;19931;-69
2022/10/29 10:19:24;;;;;;;;;;;20.90;96.60;;;;;;5037523;28;19996;-66
2022/10/29 10:22:00;;;;;;;;;;;21.00;95.60;;;;;;5059285;28;19928;-65
2022/10/29 10:24:35;;;;;;;;;;;21.10;96.20;;;;;;5033975;28;20012;-67
2022/10/29 10:27:21;;;;;;;;;;;21.10;95.40;;;;;;5030917;28;20007;-67
2022/10/29 10:30:05;;;;;;;;;;;21.20;95.20;;;;;;5047147;28;19959;-66
2022/10/29 10:32:30;;;;;;;;;;;21.30;95.50;;;;;;5059194;28;19920;-67
2022/10/29 10:34:56;;;;;;;;;;;21.30;95.70;;;;;;5046340;28;19927;-67
2022/10/29 10:37:22;;;;;;;;;;;21.30;95.00;;;;;;5032095;28;20353;-66
2022/10/29 10:39:53;;;;;;;;;;;21.40;94.70;;;;;;5043089;28;20339;-66
2022/10/29 10:42:24;;;;;;;;;;;21.40;94.10;;;;;;5055440;28;19920;-66
2022/10/29 10:44:53;;;;;;;;;;;21.40;94.70;;;;;;5050570;28;19959;-66
2022/10/29 10:47:20;;;;;;;;;;;21.50;94.30;;;;;;5057608;28;19920;-67
2022/10/29 10:49:46;;;;;;;;;;;21.50;93.80;;;;;;5039407;28;19916;-66
2022/10/29 10:52:17;;;;;;;;;;;21.60;93.50;;;;;;5048867;28;19955;-66
2022/10/29 10:54:53;;;;;;;;;;;21.60;93.50;;;;;;5044156;28;19924;-67
2022/10/29 10:57:21;;;;;;;;;;;21.60;93.90;;;;;;5048172;28;19916;-67
2022/10/29 10:59:52;;;;;;;;;;;21.50;93.70;;;;;;5044268;28;19917;-67
2022/10/29 11:02:27;;;;;;;;;;;21.50;94.50;;;;;;5049035;28;19920;-66
2022/10/29 11:04:56;;;;;;;;;;;21.40;93.60;;;;;;5045048;28;19916;-66
2022/10/29 11:07:24;;;;;;;;;;;21.40;93.20;;;;;;5056679;28;20007;-66
2022/10/29 11:09:50;;;;;;;;;;;21.40;93.60;;;;;;5043325;28;19935;-63
2022/10/29 11:12:26;;;;;;;;;;;21.30;93.40;;;;;;5050960;28;19916;-67
2022/10/29 11:14:58;;;;;;;;;;;21.30;94.00;;;;;;5046272;28;20414;-67
2022/10/29 11:17:26;;;;;;;;;;;21.30;93.30;;;;;;5056368;28;19916;-65
2022/10/29 11:19:55;;;;;;;;;;;21.30;93.10;;;;;;5048258;28;19924;-69
2022/10/29 11:22:23;;;;;;;;;;;21.30;93.30;;;;;;5048769;28;20047;-66
2022/10/29 11:24:54;;;;;;;;;;;21.40;93.00;;;;;;5048854;28;20336;-67
2022/10/29 11:27:20;;;;;;;;;;;21.40;93.20;;;;;;5059749;28;19959;-66
2022/10/29 11:29:52;;;;;;;;;;;21.40;93.10;;;;;;5049403;28;19923;-66
2022/10/29 11:32:21;;;;;;;;;;;21.40;92.90;;;;;;5042990;28;20444;-66
2022/10/29 11:35:05;;;;;;;;;;;21.50;93.20;;;;;;5046394;28;19932;-66
2022/10/29 11:37:49;;;;;;;;;;;21.50;92.90;;;;;;5059372;28;19924;-65
2022/10/29 11:40:22;;;;;;;;;;;21.50;92.90;;;;;;5034517;28;19916;-66
2022/10/29 11:42:48;;;;;;;;;;;21.60;92.60;;;;;;5036899;28;19936;-65
2022/10/29 11:45:18;;;;;;;;;;;21.60;92.40;;;;;;5038639;28;19917;-65
2022/10/29 11:48:02;;;;;;;;;;;21.70;92.40;;;;;;5037100;28;20278;-66
2022/10/29 11:50:47;;;;;;;;;;;21.60;92.80;;;;;;5034245;28;20099;-66
2022/10/29 11:53:31;;;;;;;;;;;21.60;92.60;;;;;;5036703;28;19920;-66
2022/10/29 11:56:05;;;;;;;;;;;21.60;92.50;;;;;;5039475;28;20019;-65
2022/10/29 11:58:35;;;;;;;;;;;21.60;92.20;;;;;;5035637;28;20544;-65
2022/10/29 12:01:00;;;;;;;;;;;21.60;91.90;;;;;;5029637;28;19953;-66
2022/10/29 12:03:49;;;;;;;;;;;21.50;92.30;;;;;;5040786;28;19955;-65
2022/10/29 12:06:25;;;;;;;;;;;21.50;92.60;;;;;;5032381;28;19920;-66
2022/10/29 12:08:55;;;;;;;;;;;21.50;92.70;;;;;;5040800;28;20551;-65
2022/10/29 12:11:35;;;;;;;;;;;21.50;92.70;;;;;;5035917;28;19923;-66
2022/10/29 12:14:17;;;;;;;;;;;21.50;92.90;;;;;;5042279;28;19917;-66
2022/10/29 12:16:46;;;;;;;;;;;21.50;92.70;;;;;;5038528;28;19922;-65
2022/10/29 12:19:38;;;;;;;;;;;21.50;93.30;;;;;;5047699;28;20102;-66
2022/10/29 12:22:16;;;;;;;;;;;21.60;92.30;;;;;;5040086;28;19917;-66
2022/10/29 12:24:52;;;;;;;;;;;21.60;92.00;;;;;;5051224;28;19916;-66
2022/10/29 12:27:38;;;;;;;;;;;21.60;92.60;;;;;;5047689;28;20303;-66
2022/10/29 12:30:05;;;;;;;;;;;21.60;93.00;;;;;;5044223;28;19913;-66
2022/10/29 12:32:47;;;;;;;;;;;21.70;92.10;;;;;;5060436;28;19917;-67
2022/10/29 12:35:32;;;;;;;;;;;21.90;92.50;;;;;;5046323;28;19956;-66
2022/10/29 12:38:04;;;;;;;;;;;22.00;92.50;;;;;;5038712;28;19920;-65
2022/10/29 12:40:32;;;;;;;;;;;22.10;92.10;;;;;;5047841;28;19916;-66
2022/10/29 12:43:05;;;;;;;;;;;22.10;91.80;;;;;;5052545;28;19957;-67
2022/10/29 12:45:49;;;;;;;;;;;22.00;91.70;;;;;;5059289;28;20376;-66
2022/10/29 12:48:31;;;;;;;;;;;22.00;91.40;;;;;;5050613;28;19963;-66
2022/10/29 12:51:16;;;;;;;;;;;21.90;92.20;;;;;;5041720;28;20345;-67
2022/10/29 12:53:53;;;;;;;;;;;21.90;91.90;;;;;;5045113;28;19920;-66
2022/10/29 12:56:19;;;;;;;;;;;21.90;92.50;;;;;;5033436;28;20487;-66
2022/10/29 12:58:49;;;;;;;;;;;21.90;92.00;;;;;;5042888;28;19920;-66
2022/10/29 13:01:27;;;;;;;;;;;21.80;91.80;;;;;;5032397;28;20424;-66
2022/10/29 13:03:56;;;;;;;;;;;21.80;92.30;;;;;;5042215;28;19923;-66
2022/10/29 13:06:40;;;;;;;;;;;21.80;92.30;;;;;;5030199;28;19921;-66
2022/10/29 13:09:19;;;;;;;;;;;21.80;93.00;;;;;;5039340;28;19917;-66
2022/10/29 13:11:49;;;;;;;;;;;21.80;92.40;;;;;;5029174;28;19913;-67
2022/10/29 13:14:38;;;;;;;;;;;21.80;92.70;;;;;;5046528;28;20015;-67
2022/10/29 13:17:05;;;;;;;;;;;21.70;92.70;;;;;;5041694;28;19917;-67
2022/10/29 13:19:48;;;;;;;;;;;21.70;92.80;;;;;;5037057;28;19919;-67
2022/10/29 13:22:13;;;;;;;;;;;21.60;93.70;;;;;;5033118;28;20346;-65
2022/10/29 13:24:39;;;;;;;;;;;21.60;92.70;;;;;;5039508;28;19947;-66
2022/10/29 13:27:20;;;;;;;;;;;21.60;92.60;;;;;;5038936;28;20555;-66
2022/10/29 13:29:47;;;;;;;;;;;21.50;92.40;;;;;;5042853;28;20349;-66
2022/10/29 13:32:36;;;;;;;;;;;21.50;92.00;;;;;;5038226;28;19921;-66
2022/10/29 13:35:03;;;;;;;;;;;21.50;92.40;;;;;;5042638;28;20004;-66
2022/10/29 13:37:35;;;;;;;;;;;21.50;92.20;;;;;;5039892;28;20300;-66
2022/10/29 13:40:24;;;;;;;;;;;21.50;92.80;;;;;;5033958;28;19924;-66
2022/10/29 13:43:11;;;;;;;;;;;21.50;93.10;;;;;;5040089;28;19917;-66
2022/10/29 13:45:38;;;;;;;;;;;21.50;92.90;;;;;;5044466;28;20006;-66
2022/10/29 13:48:05;;;;;;;;;;;21.50;94.00;;;;;;5041737;28;20373;-67
2022/10/29 13:50:32;;;;;;;;;;;21.50;93.60;;;;;;5035077;28;19924;-66
2022/10/29 13:52:59;;;;;;;;;;;21.50;92.50;;;;;;5034990;28;19973;-66
2022/10/29 13:55:26;;;;;;;;;;;21.50;93.10;;;;;;5039001;28;19927;-66
2022/10/29 13:58:01;;;;;;;;;;;21.50;94.60;;;;;;5038960;28;19942;-66
2022/10/29 14:00:28;;;;;;;;;;;21.50;94.10;;;;;;5041678;28;20027;-67
2022/10/29 14:03:00;;;;;;;;;;;21.50;94.40;;;;;;5034286;28;20404;-66
2022/10/29 14:05:44;;;;;;;;;;;21.50;94.40;;;;;;5035773;28;20644;-66
2022/10/29 14:08:16;;;;;;;;;;;21.40;93.80;;;;;;5035098;28;19931;-66
2022/10/29 14:10:44;;;;;;;;;;;21.40;93.60;;;;;;5043361;28;19963;-66
2022/10/29 14:13:10;;;;;;;;;;;21.30;94.00;;;;;;5035452;28;19923;-66